createdAt,value
2018-10-17T00:01:00.393Z,17.20
2018-10-17T00:03:29.137Z,17.30
2018-10-17T00:05:57.877Z,20.17
2018-10-17T00:08:26.678Z,21.10
2018-10-17T00:10:55.404Z,19.17
2018-10-17T00:13:24.134Z,17.53
2018-10-17T00:15:52.933Z,20.13
2018-10-17T00:18:21.652Z,19.20
2018-10-17T00:20:50.413Z,19.70
2018-10-17T00:23:19.218Z,16.80
2018-10-17T00:25:47.956Z,19.57
2018-10-17T00:28:16.745Z,19.10
2018-10-17T00:30:45.473Z,19.70
2018-10-17T00:33:14.233Z,17.40
2018-10-17T00:35:43.034Z,19.13
2018-10-17T00:38:11.793Z,17.32
2018-10-17T00:40:40.574Z,20.60
2018-10-17T00:43:09.383Z,19.40
2018-10-17T00:45:38.150Z,19.97
2018-10-17T00:48:06.948Z,18.30
2018-10-17T00:50:35.725Z,16.93
2018-10-17T00:53:04.752Z,16.53
2018-10-17T00:55:33.441Z,15.73
2018-10-17T00:58:02.188Z,18.13
2018-10-17T01:00:30.977Z,19.23
2018-10-17T01:02:59.713Z,19.43
2018-10-17T01:05:28.530Z,16.73
2018-10-17T01:07:57.241Z,15.63
2018-10-17T01:10:25.969Z,17.17
2018-10-17T01:12:55.955Z,16.23
2018-10-17T01:15:24.694Z,15.03
2018-10-17T01:17:53.429Z,18.37
2018-10-17T01:20:22.187Z,16.30
2018-10-17T01:22:50.950Z,17.50
2018-10-17T01:25:19.749Z,18.62
2018-10-17T01:27:48.509Z,15.90
2018-10-17T01:30:17.269Z,18.13
2018-10-17T01:32:46.361Z,17.67
2018-10-17T01:35:15.107Z,16.17
2018-10-17T01:37:43.820Z,18.83
2018-10-17T01:40:12.559Z,19.17
2018-10-17T01:42:41.322Z,19.87
2018-10-17T01:45:10.229Z,18.00
2018-10-17T01:47:38.988Z,17.73
2018-10-17T01:50:08.321Z,18.37
2018-10-17T01:52:37.066Z,17.37
2018-10-17T01:55:06.450Z,16.10
2018-10-17T01:57:35.220Z,18.87
2018-10-17T02:00:04.398Z,16.27
2018-10-17T02:02:33.145Z,17.97
2018-10-17T02:05:01.925Z,19.87
2018-10-17T02:07:30.606Z,15.17
2018-10-17T02:09:59.329Z,18.83
2018-10-17T02:12:28.073Z,18.80
2018-10-17T02:14:56.808Z,15.70
2018-10-17T02:17:25.550Z,17.27
2018-10-17T02:19:54.277Z,17.40
2018-10-17T02:22:23.020Z,16.77
2018-10-17T02:24:51.768Z,18.13
2018-10-17T02:27:20.489Z,17.83
2018-10-17T02:29:49.257Z,15.80
2018-10-17T02:32:18.022Z,16.23
2018-10-17T02:34:52.267Z,17.00
2018-10-17T02:37:21.061Z,15.90
2018-10-17T02:39:49.798Z,17.30
2018-10-17T02:42:18.610Z,17.27
2018-10-17T02:44:47.338Z,18.17
2018-10-17T02:47:16.180Z,20.60
2018-10-17T02:49:45.225Z,19.30
2018-10-17T02:52:13.974Z,17.90
2018-10-17T02:54:42.882Z,17.10
2018-10-17T02:57:11.618Z,17.40
2018-10-17T02:59:40.358Z,17.97
2018-10-17T03:02:09.146Z,17.27
2018-10-17T03:04:37.901Z,16.37
2018-10-17T03:07:06.756Z,16.27
2018-10-17T03:09:35.997Z,20.07
2018-10-17T03:12:04.902Z,19.97
2018-10-17T03:14:33.667Z,17.60
2018-10-17T03:17:02.495Z,18.13
2018-10-17T03:19:31.211Z,18.33
2018-10-17T03:21:59.963Z,16.93
2018-10-17T03:24:28.712Z,19.67
2018-10-17T03:26:57.480Z,19.27
2018-10-17T03:29:26.266Z,17.87
2018-10-17T03:31:55.026Z,18.23
2018-10-17T03:34:23.803Z,18.17
2018-10-17T03:36:52.781Z,19.43
2018-10-17T03:39:21.539Z,19.47
2018-10-17T03:41:50.278Z,19.93
2018-10-17T03:44:19.070Z,20.93
2018-10-17T03:46:47.855Z,23.57
2018-10-17T03:49:16.686Z,27.65
2018-10-17T03:51:45.417Z,27.57
2018-10-17T03:54:14.148Z,27.47
2018-10-17T03:56:42.882Z,25.10
2018-10-17T03:59:11.755Z,24.13
2018-10-17T04:01:40.456Z,25.57
2018-10-17T04:04:09.269Z,23.83
2018-10-17T04:06:38.000Z,22.13
2018-10-17T04:09:07.482Z,22.63
2018-10-17T04:11:36.202Z,22.93
2018-10-17T04:14:05.215Z,23.83
2018-10-17T04:16:33.976Z,20.07
2018-10-17T04:19:02.756Z,21.60
2018-10-17T04:21:31.463Z,20.43
2018-10-17T04:24:00.230Z,22.90
2018-10-17T04:26:28.978Z,22.53
2018-10-17T04:28:57.837Z,22.03
2018-10-17T04:31:26.699Z,24.30
2018-10-17T04:33:55.447Z,22.20
2018-10-17T04:36:24.206Z,22.90
2018-10-17T04:38:52.990Z,25.07
2018-10-17T04:41:21.759Z,22.07
2018-10-17T04:43:50.610Z,24.73
2018-10-17T04:46:19.413Z,21.93
2018-10-17T04:48:48.188Z,23.93
2018-10-17T04:51:16.926Z,24.07
2018-10-17T04:53:45.670Z,25.67
2018-10-17T04:56:14.413Z,26.80
2018-10-17T04:58:43.146Z,24.63
2018-10-17T05:01:11.975Z,24.27
2018-10-17T05:03:40.727Z,28.53
2018-10-17T05:06:09.462Z,25.23
2018-10-17T05:08:38.402Z,26.87
2018-10-17T05:11:07.208Z,26.63
2018-10-17T05:13:35.894Z,26.87
2018-10-17T05:16:04.875Z,26.47
2018-10-17T05:18:33.609Z,23.97
2018-10-17T05:21:02.386Z,25.30
2018-10-17T05:23:31.126Z,28.00
2018-10-17T05:25:59.884Z,26.37
2018-10-17T05:28:28.678Z,27.10
2018-10-17T05:30:57.510Z,23.50
2018-10-17T05:33:26.199Z,25.03
2018-10-17T05:35:54.960Z,26.60
2018-10-17T05:38:23.758Z,23.60
2018-10-17T05:40:52.531Z,28.37
2018-10-17T05:43:21.273Z,27.73
2018-10-17T05:45:50.123Z,29.50
2018-10-17T05:48:18.881Z,21.57
2018-10-17T05:50:47.659Z,27.03
2018-10-17T05:53:16.420Z,28.40
2018-10-17T05:55:45.297Z,32.47
2018-10-17T05:58:14.098Z,33.30
2018-10-17T06:00:42.838Z,32.10
2018-10-17T06:03:11.562Z,33.28
2018-10-17T06:05:40.353Z,32.60
2018-10-17T06:08:09.188Z,31.17
2018-10-17T06:10:37.955Z,35.07
2018-10-17T06:13:06.787Z,34.73
2018-10-17T06:15:35.491Z,32.37
2018-10-17T06:18:04.485Z,53.17
2018-10-17T06:20:33.475Z,31.13
2018-10-17T06:23:02.264Z,54.07
2018-10-17T06:25:30.995Z,26.87
2018-10-17T06:27:59.758Z,36.97
2018-10-17T06:30:28.504Z,33.87
2018-10-17T06:32:57.240Z,28.03
2018-10-17T06:35:25.966Z,34.33
2018-10-17T06:37:54.727Z,36.10
2018-10-17T06:40:23.498Z,32.87
2018-10-17T06:42:52.307Z,28.97
2018-10-17T06:45:21.030Z,30.48
2018-10-17T06:47:49.757Z,27.90
2018-10-17T06:50:18.590Z,30.80
2018-10-17T06:52:47.302Z,32.27
2018-10-17T06:55:16.641Z,29.43
2018-10-17T06:57:45.336Z,30.73
2018-10-17T07:00:14.089Z,25.53
2018-10-17T07:02:42.819Z,26.57
2018-10-17T07:05:11.897Z,27.13
2018-10-17T07:07:40.913Z,29.17
2018-10-17T07:10:09.680Z,26.40
2018-10-17T07:12:38.446Z,25.43
2018-10-17T07:15:07.382Z,23.97
2018-10-17T07:17:36.302Z,22.33
2018-10-17T07:20:07.310Z,22.93
2018-10-17T07:22:36.073Z,23.73
2018-10-17T07:25:05.843Z,24.43
2018-10-17T07:27:34.528Z,23.50
2018-10-17T07:30:03.298Z,23.50
2018-10-17T07:32:32.066Z,24.97
2018-10-17T07:35:00.838Z,22.23
2018-10-17T07:37:29.678Z,22.23
2018-10-17T07:39:58.418Z,23.13
2018-10-17T07:42:27.155Z,19.80
2018-10-17T07:44:55.935Z,20.10
2018-10-17T07:47:24.701Z,19.53
2018-10-17T07:49:53.475Z,19.70
2018-10-17T07:52:22.199Z,18.17
2018-10-17T07:54:50.937Z,17.40
2018-10-17T07:57:19.783Z,17.20
2018-10-17T07:59:48.591Z,17.03
2018-10-17T08:02:18.216Z,16.90
2018-10-17T08:04:46.962Z,14.87
2018-10-17T08:07:16.346Z,14.07
2018-10-17T08:09:45.209Z,12.17
2018-10-17T08:12:14.104Z,11.70
2018-10-17T08:14:43.024Z,10.83
2018-10-17T08:17:12.415Z,10.23
2018-10-17T08:19:41.452Z,7.08
2018-10-17T08:22:10.187Z,6.70
2018-10-17T08:24:38.947Z,7.00
2018-10-17T08:27:07.735Z,7.23
2018-10-17T08:29:36.494Z,7.00
2018-10-17T08:32:06.220Z,6.70
2018-10-17T08:34:34.970Z,6.67
2018-10-17T08:37:05.106Z,7.97
2018-10-17T08:39:33.574Z,7.03
2018-10-17T08:42:02.338Z,6.97
2018-10-17T08:44:31.171Z,6.30
2018-10-17T08:46:59.934Z,6.63
2018-10-17T08:49:28.714Z,6.20
2018-10-17T08:51:57.442Z,5.93
2018-10-17T08:54:26.661Z,7.53
2018-10-17T08:56:55.466Z,5.83
2018-10-17T08:59:24.873Z,6.50
2018-10-17T09:01:56.004Z,6.40
2018-10-17T09:04:24.774Z,7.10
2018-10-17T09:06:53.546Z,7.10
2018-10-17T09:09:22.933Z,7.33
2018-10-17T09:11:51.669Z,6.07
2018-10-17T09:14:20.473Z,6.17
2018-10-17T09:16:49.273Z,5.70
2018-10-17T09:19:17.948Z,5.07
2018-10-17T09:21:47.105Z,5.63
2018-10-17T09:24:15.656Z,3.53
2018-10-17T09:26:44.265Z,3.20
2018-10-17T09:29:13.015Z,2.93
2018-10-17T09:31:41.795Z,3.23
2018-10-17T09:34:10.593Z,2.80
2018-10-17T09:36:39.309Z,3.90
2018-10-17T09:39:09.663Z,3.23
2018-10-17T09:41:38.394Z,3.23
2018-10-17T09:44:07.110Z,2.73
2018-10-17T09:46:35.866Z,2.97
2018-10-17T09:49:04.692Z,3.07
2018-10-17T09:51:33.778Z,2.60
2018-10-17T09:54:02.587Z,2.87
2018-10-17T09:56:31.270Z,3.33
2018-10-17T09:59:00.043Z,2.93
2018-10-17T10:01:33.854Z,3.93
2018-10-17T10:04:02.694Z,4.77
2018-10-17T10:06:31.396Z,3.37
2018-10-17T10:09:00.215Z,5.43
2018-10-17T10:11:28.954Z,4.00
2018-10-17T10:13:57.670Z,4.30
2018-10-17T10:16:26.452Z,3.13
2018-10-17T10:18:55.305Z,4.30
2018-10-17T10:21:24.018Z,3.47
2018-10-17T10:23:52.739Z,3.03
2018-10-17T10:26:21.495Z,3.83
2018-10-17T10:28:50.246Z,3.17
2018-10-17T10:31:19.055Z,5.17
2018-10-17T10:33:47.835Z,4.50
2018-10-17T10:36:16.663Z,4.65
2018-10-17T10:38:45.414Z,4.43
2018-10-17T10:41:14.217Z,5.27
2018-10-17T10:43:42.954Z,4.17
2018-10-17T10:46:11.730Z,4.17
2018-10-17T10:48:40.494Z,5.60
2018-10-17T10:51:09.873Z,5.27
2018-10-17T10:53:38.594Z,4.40
2018-10-17T10:56:07.341Z,3.77
2018-10-17T10:58:36.175Z,3.77
2018-10-17T11:01:04.895Z,3.50
2018-10-17T11:03:33.653Z,3.27
2018-10-17T11:06:02.406Z,3.50
2018-10-17T11:08:31.094Z,3.33
2018-10-17T11:10:59.936Z,4.30
2018-10-17T11:13:28.581Z,4.13
2018-10-17T11:15:57.343Z,3.47
2018-10-17T11:18:26.067Z,3.80
2018-10-17T11:20:55.788Z,4.03
2018-10-17T11:23:24.530Z,2.73
2018-10-17T11:25:53.223Z,2.10
2018-10-17T11:28:21.968Z,3.00
2018-10-17T11:30:50.691Z,2.10
2018-10-17T11:33:19.588Z,2.03
2018-10-17T11:35:48.210Z,1.83
2018-10-17T11:38:16.946Z,1.87
2018-10-17T11:40:45.744Z,2.27
2018-10-17T11:43:14.404Z,2.87
2018-10-17T11:45:43.118Z,1.87
2018-10-17T11:48:11.867Z,2.42
2018-10-17T11:50:40.677Z,3.53
2018-10-17T11:53:09.368Z,3.67
2018-10-17T11:55:38.099Z,3.00
2018-10-17T11:58:06.822Z,3.40
2018-10-17T12:00:35.574Z,3.55
2018-10-17T12:03:04.653Z,3.40
2018-10-17T12:05:33.762Z,2.73
2018-10-17T12:08:02.134Z,3.23
2018-10-17T12:10:30.849Z,3.50
2018-10-17T12:12:59.674Z,3.80
2018-10-17T12:15:28.407Z,2.53
2018-10-17T12:17:57.255Z,3.47
2018-10-17T12:20:25.948Z,3.17
2018-10-17T12:22:54.682Z,2.77
2018-10-17T12:25:23.435Z,2.67
2018-10-17T12:27:52.288Z,2.27
2018-10-17T12:30:20.987Z,2.58
2018-10-17T12:32:49.766Z,3.17
2018-10-17T12:35:18.589Z,2.43
2018-10-17T12:37:47.911Z,2.67
2018-10-17T12:40:16.658Z,2.23
2018-10-17T12:42:45.470Z,2.10
2018-10-17T12:45:14.277Z,2.00
2018-10-17T12:47:43.075Z,2.37
2018-10-17T12:50:11.858Z,2.60
2018-10-17T12:52:40.688Z,1.90
2018-10-17T12:55:09.824Z,2.60
2018-10-17T12:57:38.556Z,3.00
2018-10-17T13:00:09.062Z,2.73
2018-10-17T13:02:37.906Z,2.73
2018-10-17T13:05:07.832Z,2.40
2018-10-17T13:07:36.546Z,2.20
2018-10-17T13:10:06.114Z,2.83
2018-10-17T13:12:34.860Z,2.47
2018-10-17T13:15:05.572Z,2.37
2018-10-17T13:17:34.230Z,2.47
2018-10-17T13:20:02.955Z,2.67
2018-10-17T13:22:31.679Z,2.40
2018-10-17T13:25:00.690Z,2.23
2018-10-17T13:27:29.432Z,1.97
2018-10-17T13:29:58.221Z,3.10
2018-10-17T13:32:26.970Z,2.63
2018-10-17T13:34:55.702Z,1.70
2018-10-17T13:37:24.447Z,2.43
2018-10-17T13:39:53.206Z,2.90
2018-10-17T13:42:21.941Z,2.22
2018-10-17T13:44:50.662Z,2.40
2018-10-17T13:47:19.578Z,4.00
2018-10-17T13:49:48.327Z,2.37
2018-10-17T13:52:17.089Z,2.60
2018-10-17T13:54:46.005Z,2.43
2018-10-17T13:57:14.742Z,2.55
2018-10-17T13:59:43.600Z,1.80
2018-10-17T14:02:12.275Z,2.57
2018-10-17T14:04:41.034Z,2.33
2018-10-17T14:07:09.789Z,1.62
2018-10-17T14:09:38.555Z,2.10
2018-10-17T14:12:07.603Z,1.97
2018-10-17T14:14:36.269Z,2.07
2018-10-17T14:17:05.032Z,2.03
2018-10-17T14:19:34.032Z,1.50
2018-10-17T14:22:02.758Z,1.77
2018-10-17T14:24:31.478Z,1.70
2018-10-17T14:27:00.265Z,2.63
2018-10-17T14:29:29.022Z,1.60
2018-10-17T14:31:57.714Z,2.17
2018-10-17T14:34:26.498Z,3.10
2018-10-17T14:36:55.312Z,3.03
2018-10-17T14:39:24.061Z,2.50
2018-10-17T14:41:52.822Z,1.73
2018-10-17T14:44:21.522Z,1.82
2018-10-17T14:46:50.306Z,1.70
2018-10-17T14:49:19.087Z,1.80
2018-10-17T14:51:47.883Z,2.00
2018-10-17T14:54:16.734Z,1.85
2018-10-17T14:56:45.449Z,2.40
2018-10-17T14:59:15.091Z,2.60
2018-10-17T15:01:43.834Z,2.37
2018-10-17T15:04:12.550Z,2.47
2018-10-17T15:06:41.290Z,2.90
2018-10-17T15:09:10.297Z,2.90
2018-10-17T15:11:39.767Z,3.20
2018-10-17T15:14:08.600Z,2.97
2018-10-17T15:16:37.687Z,2.60
2018-10-17T15:19:06.427Z,3.30
2018-10-17T15:21:35.191Z,3.43
2018-10-17T15:24:05.033Z,3.33
2018-10-17T15:26:33.722Z,3.90
2018-10-17T15:29:02.448Z,3.27
2018-10-17T15:31:31.228Z,3.03
2018-10-17T15:33:59.947Z,2.60
2018-10-17T15:36:28.667Z,3.03
2018-10-17T15:38:57.433Z,2.50
2018-10-17T15:41:26.190Z,2.87
2018-10-17T15:43:54.934Z,3.07
2018-10-17T15:46:23.670Z,2.73
2018-10-17T15:48:52.451Z,2.93
2018-10-17T15:51:22.006Z,2.20
2018-10-17T15:53:50.770Z,2.50
2018-10-17T15:56:19.530Z,2.07
2018-10-17T15:58:48.250Z,2.67
2018-10-17T16:01:17.111Z,3.17
2018-10-17T16:03:45.931Z,3.63
2018-10-17T16:06:14.790Z,3.63
2018-10-17T16:08:43.460Z,3.77
2018-10-17T16:11:12.276Z,3.58
2018-10-17T16:13:40.996Z,3.80
2018-10-17T16:16:09.747Z,5.40
2018-10-17T16:18:38.497Z,3.90
2018-10-17T16:21:07.231Z,3.97
2018-10-17T16:23:35.960Z,4.67
2018-10-17T16:26:04.927Z,5.33
2018-10-17T16:28:33.574Z,4.70
2018-10-17T16:31:02.459Z,5.20
2018-10-17T16:33:31.094Z,5.57
2018-10-17T16:35:59.934Z,4.87
2018-10-17T16:38:28.622Z,5.30
2018-10-17T16:40:57.384Z,4.40
2018-10-17T16:43:26.471Z,6.33
2018-10-17T16:45:55.234Z,4.70
2018-10-17T16:48:24.004Z,5.70
2018-10-17T16:50:52.782Z,5.47
2018-10-17T16:53:21.494Z,5.47
2018-10-17T16:55:50.220Z,5.80
2018-10-17T16:58:19.110Z,5.10
2018-10-17T17:00:47.704Z,5.90
2018-10-17T17:03:16.553Z,4.62
2018-10-17T17:05:45.234Z,4.17
2018-10-17T17:08:13.958Z,5.40
2018-10-17T17:10:42.697Z,4.97
2018-10-17T17:13:11.447Z,6.50
2018-10-17T17:15:40.194Z,4.30
2018-10-17T17:18:08.970Z,4.33
2018-10-17T17:20:37.681Z,4.93
2018-10-17T17:23:06.463Z,5.07
2018-10-17T17:25:35.250Z,5.27
2018-10-17T17:28:04.485Z,5.27
2018-10-17T17:30:33.192Z,5.50
2018-10-17T17:33:01.977Z,6.90
2018-10-17T17:35:30.699Z,7.47
2018-10-17T17:37:59.446Z,7.50
2018-10-17T17:40:28.199Z,6.07
2018-10-17T17:42:57.030Z,5.77
2018-10-17T17:45:25.787Z,5.60
2018-10-17T17:47:54.563Z,5.93
2018-10-17T17:50:23.307Z,4.67
2018-10-17T17:52:52.084Z,4.83
2018-10-17T17:55:20.946Z,5.58
2018-10-17T17:57:49.832Z,5.77
2018-10-17T18:00:18.558Z,5.10
2018-10-17T18:02:47.348Z,6.07
2018-10-17T18:05:16.107Z,5.30
2018-10-17T18:07:45.654Z,6.17
2018-10-17T18:10:15.286Z,5.77
2018-10-17T18:12:44.022Z,6.00
2018-10-17T18:15:12.776Z,6.60
2018-10-17T18:17:41.570Z,6.27
2018-10-17T18:20:10.375Z,5.55
2018-10-17T18:22:39.174Z,7.17
2018-10-17T18:25:08.036Z,6.13
2018-10-17T18:27:37.201Z,5.40
2018-10-17T18:30:06.218Z,6.90
2018-10-17T18:32:34.988Z,5.57
2018-10-17T18:35:05.578Z,6.20
2018-10-17T18:37:34.632Z,6.17
2018-10-17T18:40:03.447Z,7.40
2018-10-17T18:42:32.279Z,6.53
2018-10-17T18:45:01.095Z,6.80
2018-10-17T18:47:29.834Z,8.07
2018-10-17T18:49:58.586Z,9.30
2018-10-17T18:52:27.350Z,8.30
2018-10-17T18:54:56.119Z,8.40
2018-10-17T18:57:24.863Z,7.30
2018-10-17T18:59:53.659Z,7.40
2018-10-17T19:02:22.464Z,8.17
2018-10-17T19:04:51.258Z,7.60
2018-10-17T19:07:20.903Z,7.72
2018-10-17T19:09:49.646Z,8.10
2018-10-17T19:12:18.398Z,6.90
2018-10-17T19:14:47.154Z,6.73
2018-10-17T19:17:15.945Z,6.62
2018-10-17T19:19:44.742Z,6.13
2018-10-17T19:22:14.101Z,6.78
2018-10-17T19:24:43.043Z,8.07
2018-10-17T19:27:11.801Z,6.37
2018-10-17T19:29:41.155Z,7.20
2018-10-17T19:32:09.938Z,7.65
2018-10-17T19:34:38.731Z,7.10
2018-10-17T19:37:07.535Z,7.53
2018-10-17T19:39:36.304Z,6.53
2018-10-17T19:42:05.485Z,7.10
2018-10-17T19:44:35.250Z,7.47
2018-10-17T19:47:04.409Z,7.90
2018-10-17T19:49:33.209Z,8.33
2018-10-17T19:52:02.115Z,8.20
2018-10-17T19:54:31.058Z,7.30
2018-10-17T19:56:59.831Z,7.10
2018-10-17T19:59:28.647Z,7.83
2018-10-17T20:01:57.498Z,8.47
2018-10-17T20:04:26.244Z,8.37
2018-10-17T20:06:55.027Z,8.20
2018-10-17T20:09:23.814Z,7.63
2018-10-17T20:11:52.566Z,7.07
2018-10-17T20:14:21.424Z,8.33
2018-10-17T20:16:50.127Z,8.23
2018-10-17T20:19:18.951Z,9.50
2018-10-17T20:21:47.704Z,7.50
2018-10-17T20:24:16.526Z,8.08
2018-10-17T20:26:45.274Z,9.40
2018-10-17T20:29:14.026Z,7.83
2018-10-17T20:31:42.894Z,5.00
2018-10-17T20:34:13.142Z,3.72
2018-10-17T20:36:42.355Z,3.80
2018-10-17T20:39:13.740Z,4.47
2018-10-17T20:41:42.597Z,3.40
2018-10-17T20:44:13.130Z,4.43
2018-10-17T20:46:41.791Z,4.13
2018-10-17T20:49:10.741Z,5.00
2018-10-17T20:51:39.522Z,5.00
2018-10-17T20:54:08.627Z,5.33
2018-10-17T20:56:37.853Z,6.50
2018-10-17T20:59:10.027Z,6.32
2018-10-17T21:01:38.860Z,6.90
2018-10-17T21:04:07.646Z,6.17
2018-10-17T21:06:36.416Z,7.43
2018-10-17T21:09:08.259Z,7.40
2018-10-17T21:11:37.074Z,7.67
2018-10-17T21:14:07.303Z,8.07
2018-10-17T21:16:36.043Z,8.50
2018-10-17T21:19:05.099Z,6.97
2018-10-17T21:21:33.872Z,6.50
2018-10-17T21:24:02.634Z,8.00
2018-10-17T21:26:31.371Z,8.30
2018-10-17T21:29:00.156Z,7.10
2018-10-17T21:31:28.930Z,4.57
2018-10-17T21:33:57.701Z,4.87
2018-10-17T21:39:01.903Z,4.47
2018-10-17T21:41:30.622Z,5.67
2018-10-17T21:43:59.474Z,5.13
2018-10-17T21:46:28.225Z,5.63
2018-10-17T21:48:56.973Z,5.00
2018-10-17T21:51:25.734Z,5.63
2018-10-17T21:53:54.522Z,5.87
2018-10-17T21:56:23.314Z,4.90
2018-10-17T21:58:52.176Z,7.13
2018-10-17T22:01:20.981Z,5.83
2018-10-17T22:03:49.750Z,5.90
2018-10-17T22:06:18.536Z,6.90
2018-10-17T22:08:47.307Z,6.43
2018-10-17T22:11:16.098Z,3.97
2018-10-17T22:13:44.830Z,5.40
2018-10-17T22:16:13.646Z,5.17
2018-10-17T22:18:42.412Z,4.93
2018-10-17T22:21:11.222Z,5.83
2018-10-17T22:23:40.015Z,5.53
2018-10-17T22:26:08.948Z,5.03
2018-10-17T22:28:37.654Z,3.87
2018-10-17T22:31:06.388Z,4.20
2018-10-17T22:33:35.126Z,3.97
2018-10-17T22:36:04.514Z,3.97
2018-10-17T22:38:33.251Z,4.87
2018-10-17T22:41:02.027Z,5.10
2018-10-17T22:43:30.770Z,4.50
2018-10-17T22:45:59.596Z,4.70
2018-10-17T22:48:28.350Z,4.43
2018-10-17T22:50:57.118Z,4.50
2018-10-17T22:53:25.870Z,5.47
2018-10-17T22:55:55.368Z,6.53
2018-10-17T22:58:24.626Z,5.93
2018-10-17T23:00:53.400Z,4.95
2018-10-17T23:03:22.186Z,5.17
2018-10-17T23:05:50.910Z,4.37
2018-10-17T23:08:19.691Z,6.03
2018-10-17T23:10:48.462Z,6.70
2018-10-17T23:13:17.299Z,6.87
2018-10-17T23:15:46.042Z,5.40
2018-10-17T23:18:14.822Z,5.50
2018-10-17T23:20:43.547Z,7.20
2018-10-17T23:23:12.281Z,5.67
2018-10-17T23:25:41.051Z,6.10
2018-10-17T23:28:09.783Z,7.73
2018-10-17T23:30:38.519Z,6.60
2018-10-17T23:33:07.382Z,5.37
2018-10-17T23:35:36.155Z,5.33
2018-10-17T23:38:05.032Z,7.00
2018-10-17T23:40:33.650Z,6.73
2018-10-17T23:43:02.546Z,6.50
2018-10-17T23:45:31.283Z,5.43
2018-10-17T23:48:00.176Z,6.27
2018-10-17T23:50:28.889Z,7.53
2018-10-17T23:52:57.621Z,6.57
2018-10-17T23:55:26.366Z,6.23
2018-10-17T23:57:55.110Z,6.80
